createdAt,value
2022-11-07T00:06:40.677Z,5.40
2022-11-07T00:16:44.706Z,5.40
2022-11-07T00:26:49.484Z,5.03
2022-11-07T00:36:52.505Z,5.00
2022-11-07T00:46:56.877Z,5.70
2022-11-07T00:56:59.885Z,5.40
2022-11-07T01:07:04.323Z,5.13
2022-11-07T01:17:07.324Z,5.33
2022-11-07T01:27:11.697Z,5.23
2022-11-07T01:37:14.826Z,5.43
2022-11-07T01:47:19.408Z,5.10
2022-11-07T01:57:26.614Z,4.23
2022-11-07T02:07:31.606Z,4.93
2022-11-07T02:17:35.686Z,5.37
2022-11-07T02:27:41.842Z,4.93
2022-11-07T02:37:44.850Z,4.33
2022-11-07T02:47:49.213Z,4.80
2022-11-07T02:57:52.214Z,4.90
2022-11-07T03:07:56.618Z,5.00
2022-11-07T03:18:00.347Z,4.27
2022-11-07T03:28:05.322Z,4.40
2022-11-07T03:38:08.318Z,4.30
2022-11-07T03:48:12.658Z,3.77
2022-11-07T03:58:16.321Z,3.70
2022-11-07T04:08:20.980Z,3.20
2022-11-07T04:18:24.017Z,3.40
2022-11-07T04:28:28.345Z,3.40
2022-11-07T04:38:31.346Z,3.30
2022-11-07T04:48:35.710Z,3.30
2022-11-07T04:58:38.714Z,3.17
2022-11-07T05:08:43.055Z,3.20
2022-11-07T05:18:46.179Z,2.70
2022-11-07T05:28:50.533Z,2.80
2022-11-07T05:38:54.845Z,3.40
2022-11-07T05:49:01.071Z,3.10
2022-11-07T05:59:06.097Z,2.87
2022-11-07T06:09:10.606Z,2.70
2022-11-07T06:19:13.576Z,2.70
2022-11-07T06:29:18.129Z,2.47
2022-11-07T06:39:21.175Z,2.50
2022-11-07T06:49:25.559Z,3.10
2022-11-07T06:59:28.854Z,2.37
2022-11-07T07:09:33.218Z,2.23
2022-11-07T07:19:36.374Z,2.07
2022-11-07T07:29:40.756Z,2.23
2022-11-07T07:39:43.745Z,2.40
2022-11-07T07:49:48.099Z,2.30
2022-11-07T07:59:51.083Z,2.10
2022-11-07T08:09:55.441Z,2.43
2022-11-07T08:19:58.480Z,2.70
2022-11-07T08:30:03.245Z,2.43
2022-11-07T08:40:07.275Z,2.23
2022-11-07T08:50:11.745Z,2.33
2022-11-07T09:00:15.497Z,2.37
2022-11-07T09:10:20.000Z,2.40
2022-11-07T09:20:23.001Z,2.57
2022-11-07T09:30:27.377Z,2.10
2022-11-07T09:40:40.646Z,2.13
2022-11-07T09:50:49.096Z,1.70
2022-11-07T10:00:52.477Z,1.80
2022-11-07T10:11:00.582Z,1.67
2022-11-07T10:21:36.577Z,2.03
2022-11-07T10:31:39.852Z,1.70
2022-11-07T10:41:45.066Z,1.90
2022-11-07T10:51:49.929Z,1.83
2022-11-07T11:01:55.229Z,2.23
2022-11-07T11:11:59.986Z,1.47
2022-11-07T11:22:08.620Z,1.80
2022-11-07T11:32:21.249Z,1.70
2022-11-07T11:42:33.558Z,1.33
2022-11-07T11:52:38.031Z,1.60
2022-11-07T12:03:21.846Z,1.42
2022-11-07T12:13:34.809Z,1.33
2022-11-07T12:23:56.754Z,0.60
2022-11-07T12:34:15.023Z,0.80
2022-11-07T12:44:44.593Z,0.70
2022-11-07T12:54:52.546Z,0.80
2022-11-07T13:04:59.459Z,0.93
2022-11-07T13:15:04.743Z,0.68
2022-11-07T13:25:24.181Z,0.88
2022-11-07T13:35:30.708Z,0.70
2022-11-07T13:45:38.778Z,0.75
2022-11-07T13:55:47.128Z,0.85
2022-11-07T14:05:50.360Z,0.80
2022-11-07T14:15:57.296Z,0.80
2022-11-07T14:26:02.219Z,0.90
2022-11-07T14:36:07.721Z,0.90
2022-11-07T14:46:16.920Z,0.90
2022-11-07T14:56:25.604Z,0.70
2022-11-07T15:06:34.230Z,0.70
2022-11-07T15:16:40.367Z,0.77
2022-11-07T15:26:43.409Z,0.90
2022-11-07T15:36:47.753Z,1.00
2022-11-07T15:46:50.797Z,1.00
2022-11-07T15:56:59.868Z,0.93
2022-11-07T16:07:03.048Z,1.33
2022-11-07T16:17:07.794Z,1.42
2022-11-07T16:27:15.284Z,1.50
2022-11-07T16:37:19.620Z,1.60
2022-11-07T16:47:23.928Z,1.55
2022-11-07T16:57:28.431Z,1.92
2022-11-07T17:07:31.412Z,2.20
2022-11-07T17:17:35.773Z,2.40
2022-11-07T17:27:40.999Z,3.67
2022-11-07T17:37:45.346Z,3.50
2022-11-07T17:47:49.614Z,3.30
2022-11-07T17:57:53.999Z,3.20
2022-11-07T18:07:56.986Z,3.30
2022-11-07T18:18:04.371Z,3.17
2022-11-07T18:28:09.967Z,2.77
2022-11-07T18:38:14.565Z,12.57
2022-11-07T18:48:18.237Z,4.20
2022-11-07T18:58:22.904Z,4.07
2022-11-07T19:08:25.905Z,3.70
2022-11-07T19:18:30.266Z,3.67
2022-11-07T19:28:33.321Z,6.97
2022-11-07T19:38:37.666Z,3.47
2022-11-07T19:48:40.676Z,3.73
2022-11-07T19:58:45.164Z,4.40
2022-11-07T20:08:48.226Z,3.50
2022-11-07T20:18:52.658Z,3.90
2022-11-07T20:28:55.812Z,3.90
2022-11-07T20:39:00.949Z,3.13
2022-11-07T20:49:06.716Z,3.63
2022-11-07T20:59:11.174Z,3.50
2022-11-07T21:09:14.514Z,3.60
2022-11-07T21:19:18.867Z,4.20
2022-11-07T21:29:25.272Z,3.87
2022-11-07T21:39:33.511Z,4.10
2022-11-07T21:49:36.488Z,4.10
2022-11-07T21:59:40.899Z,3.57
2022-11-07T22:09:43.871Z,3.80
2022-11-07T22:19:50.189Z,3.40
2022-11-07T22:29:53.221Z,3.20
2022-11-07T22:39:57.585Z,3.73
2022-11-07T22:50:00.570Z,3.47
2022-11-07T23:00:19.798Z,3.00
2022-11-07T23:10:23.811Z,2.90
2022-11-07T23:20:45.560Z,2.93
2022-11-07T23:30:51.861Z,2.80
2022-11-07T23:40:56.536Z,2.90
2022-11-07T23:51:03.830Z,2.67
